createdAt,value
2018-05-25T00:00:53.414Z,66.20
2018-05-25T00:03:21.075Z,66.10
2018-05-25T00:05:48.736Z,66.90
2018-05-25T00:08:16.403Z,66.00
2018-05-25T00:10:44.187Z,66.00
2018-05-25T00:13:11.857Z,66.10
2018-05-25T00:15:39.629Z,66.00
2018-05-25T00:18:07.389Z,66.00
2018-05-25T00:20:35.040Z,66.00
2018-05-25T00:23:02.712Z,66.00
2018-05-25T00:25:30.476Z,66.10
2018-05-25T00:27:58.127Z,66.00
2018-05-25T00:30:26.916Z,65.90
2018-05-25T00:32:54.681Z,66.00
2018-05-25T00:35:22.320Z,66.00
2018-05-25T00:37:49.983Z,66.00
2018-05-25T00:40:17.769Z,66.00
2018-05-25T00:42:45.412Z,65.90
2018-05-25T00:45:13.075Z,65.80
2018-05-25T00:47:40.732Z,66.00
2018-05-25T00:50:08.417Z,66.00
2018-05-25T00:52:36.057Z,66.00
2018-05-25T00:55:15.778Z,65.90
2018-05-25T00:57:44.408Z,66.00
2018-05-25T01:00:12.181Z,66.00
2018-05-25T01:02:39.834Z,65.90
2018-05-25T01:05:07.601Z,65.90
2018-05-25T01:07:35.362Z,65.90
2018-05-25T01:10:04.060Z,65.90
2018-05-25T01:12:31.918Z,65.90
2018-05-25T01:14:59.555Z,66.00
2018-05-25T01:17:27.219Z,65.90
2018-05-25T01:19:55.004Z,66.00
2018-05-25T01:22:22.667Z,65.90
2018-05-25T01:24:50.308Z,65.90
2018-05-25T01:27:17.969Z,66.00
2018-05-25T01:29:45.754Z,65.80
2018-05-25T01:32:13.405Z,65.80
2018-05-25T01:34:41.055Z,65.90
2018-05-25T01:37:08.861Z,65.90
2018-05-25T01:39:36.507Z,65.80
2018-05-25T01:42:04.167Z,65.90
2018-05-25T01:44:31.932Z,65.70
2018-05-25T01:46:59.602Z,65.80
2018-05-25T01:49:27.255Z,65.70
2018-05-25T01:51:56.044Z,65.70
2018-05-25T01:54:25.252Z,65.90
2018-05-25T01:56:52.913Z,65.80
2018-05-25T01:59:20.645Z,65.80
2018-05-25T02:01:48.433Z,65.70
2018-05-25T02:04:16.084Z,65.80
2018-05-25T02:06:43.769Z,65.70
2018-05-25T02:09:11.539Z,65.80
2018-05-25T02:11:39.191Z,65.80
2018-05-25T02:14:06.952Z,65.70
2018-05-25T02:16:34.825Z,65.80
2018-05-25T02:19:02.580Z,65.90
2018-05-25T02:21:30.243Z,65.80
2018-05-25T02:23:57.903Z,65.80
2018-05-25T02:26:25.546Z,65.80
2018-05-25T02:28:53.203Z,65.70
2018-05-25T02:31:20.889Z,65.60
2018-05-25T02:33:48.531Z,65.70
2018-05-25T02:36:16.202Z,65.80
2018-05-25T02:38:43.897Z,65.70
2018-05-25T02:41:11.826Z,65.80
2018-05-25T02:43:39.509Z,65.80
2018-05-25T02:46:07.201Z,65.80
2018-05-25T02:48:34.865Z,65.70
2018-05-25T02:51:02.534Z,65.80
2018-05-25T02:53:30.185Z,65.70
2018-05-25T02:55:57.845Z,65.60
2018-05-25T02:58:25.522Z,65.60
2018-05-25T03:00:54.183Z,65.70
2018-05-25T03:03:21.945Z,65.60
2018-05-25T03:05:49.704Z,65.70
2018-05-25T03:08:17.465Z,65.60
2018-05-25T03:10:45.224Z,65.70
2018-05-25T03:13:13.071Z,65.70
2018-05-25T03:15:40.727Z,65.70
2018-05-25T03:18:08.391Z,65.60
2018-05-25T03:20:36.073Z,66.50
2018-05-25T03:23:03.713Z,65.60
2018-05-25T03:25:31.372Z,65.80
2018-05-25T03:27:59.036Z,65.70
2018-05-25T03:30:26.726Z,65.70
2018-05-25T03:32:54.383Z,65.70
2018-05-25T03:35:22.045Z,65.70
2018-05-25T03:37:49.820Z,65.80
2018-05-25T03:40:17.586Z,65.60
2018-05-25T03:42:45.238Z,65.70
2018-05-25T03:45:13.010Z,65.60
2018-05-25T03:47:40.664Z,65.70
2018-05-25T03:50:08.339Z,65.60
2018-05-25T03:52:36.202Z,65.70
2018-05-25T03:55:03.853Z,65.60
2018-05-25T03:57:31.499Z,65.50
2018-05-25T04:00:10.989Z,65.60
2018-05-25T04:02:38.725Z,65.90
2018-05-25T04:05:06.484Z,64.80
2018-05-25T04:11:31.024Z,67.00
2018-05-25T04:13:58.713Z,66.30
2018-05-25T04:16:27.566Z,66.80
2018-05-25T04:18:55.224Z,66.70
2018-05-25T04:21:23.964Z,66.70
2018-05-25T04:23:51.665Z,66.80
2018-05-25T04:26:19.490Z,66.80
2018-05-25T04:28:47.283Z,66.80
2018-05-25T04:31:15.125Z,66.80
2018-05-25T04:33:42.868Z,66.90
2018-05-25T04:36:11.350Z,67.00
2018-05-25T04:38:39.816Z,67.30
2018-05-25T04:41:07.703Z,67.30
2018-05-25T04:43:36.196Z,67.80
2018-05-25T04:46:04.731Z,67.80
2018-05-25T04:48:32.720Z,67.70
2018-05-25T04:51:00.666Z,68.00
2018-05-25T04:53:28.407Z,68.60
2018-05-25T04:55:56.211Z,68.30
2018-05-25T04:58:23.926Z,68.30
2018-05-25T05:00:52.178Z,68.70
2018-05-25T05:03:20.921Z,68.60
2018-05-25T05:05:48.689Z,68.50
2018-05-25T05:08:16.432Z,68.50
2018-05-25T05:10:44.328Z,68.50
2018-05-25T05:13:12.192Z,68.60
2018-05-25T05:15:39.991Z,68.60
2018-05-25T05:18:08.626Z,68.60
2018-05-25T05:20:36.848Z,68.50
2018-05-25T05:23:05.337Z,68.60
2018-05-25T05:25:33.985Z,68.60
2018-05-25T05:28:01.745Z,68.60
2018-05-25T05:30:29.470Z,68.60
2018-05-25T05:32:57.193Z,68.50
2018-05-25T05:35:24.876Z,68.40
2018-05-25T05:37:53.469Z,68.20
2018-05-25T05:40:21.460Z,68.20
2018-05-25T05:42:49.133Z,68.20
2018-05-25T05:45:16.820Z,68.20
2018-05-25T05:47:44.499Z,68.20
2018-05-25T05:50:12.203Z,68.10
2018-05-25T05:52:39.940Z,67.90
2018-05-25T05:55:08.491Z,67.80
2018-05-25T05:57:36.175Z,67.80
2018-05-25T06:00:04.830Z,67.70
2018-05-25T06:02:32.529Z,67.60
2018-05-25T06:05:01.021Z,67.60
2018-05-25T06:07:29.469Z,67.60
2018-05-25T06:09:57.185Z,67.40
2018-05-25T06:12:24.884Z,67.50
2018-05-25T06:14:53.064Z,67.40
2018-05-25T06:17:20.805Z,67.40
2018-05-25T06:19:48.478Z,67.40
2018-05-25T06:22:16.162Z,67.40
2018-05-25T06:24:44.317Z,67.50
2018-05-25T06:27:11.999Z,67.40
2018-05-25T06:29:39.780Z,67.40
2018-05-25T06:32:08.316Z,67.30
2018-05-25T06:34:36.015Z,67.30
2018-05-25T06:37:03.723Z,67.30
2018-05-25T06:39:31.427Z,67.50
2018-05-25T06:41:59.191Z,67.20
2018-05-25T06:44:26.956Z,67.20
2018-05-25T06:46:54.653Z,67.10
2018-05-25T06:49:23.171Z,67.10
2018-05-25T06:51:50.874Z,67.10
2018-05-25T06:54:18.626Z,67.00
2018-05-25T06:56:46.626Z,67.80
2018-05-25T06:59:15.106Z,66.90
2018-05-25T07:01:43.569Z,67.00
2018-05-25T07:04:11.364Z,67.00
2018-05-25T07:06:39.124Z,67.00
2018-05-25T07:09:07.557Z,67.10
2018-05-25T07:11:35.224Z,67.00
2018-05-25T07:14:02.974Z,67.20
2018-05-25T07:16:30.872Z,67.10
2018-05-25T07:18:58.565Z,67.10
2018-05-25T07:21:26.537Z,67.10
2018-05-25T07:23:54.339Z,67.30
2018-05-25T07:26:22.024Z,67.20
2018-05-25T07:28:49.864Z,67.40
2018-05-25T07:31:17.577Z,67.20
2018-05-25T07:33:46.037Z,67.50
2018-05-25T07:36:15.773Z,67.30
2018-05-25T07:38:43.489Z,67.40
2018-05-25T07:41:11.185Z,67.40
2018-05-25T07:43:39.636Z,67.40
2018-05-25T07:46:07.322Z,67.30
2018-05-25T07:48:34.981Z,67.40
2018-05-25T07:51:02.664Z,67.40
2018-05-25T07:53:31.106Z,67.40
2018-05-25T07:55:58.835Z,67.30
2018-05-25T07:58:26.650Z,67.40
2018-05-25T08:00:54.321Z,67.50
2018-05-25T08:03:22.023Z,67.50
2018-05-25T08:05:49.772Z,67.60
2018-05-25T08:08:17.517Z,67.70
2018-05-25T08:10:46.075Z,67.70
2018-05-25T08:13:13.843Z,67.70
2018-05-25T08:15:41.533Z,67.70
2018-05-25T08:18:09.987Z,67.90
2018-05-25T08:20:37.665Z,67.90
2018-05-25T08:23:05.368Z,67.80
2018-05-25T08:25:33.053Z,67.80
2018-05-25T08:28:00.870Z,67.90
2018-05-25T08:30:29.358Z,67.90
2018-05-25T08:32:57.789Z,67.80
2018-05-25T08:35:25.490Z,67.70
2018-05-25T08:37:53.905Z,67.90
2018-05-25T08:40:21.647Z,67.90
2018-05-25T08:42:50.075Z,67.90
2018-05-25T08:45:17.774Z,67.90
2018-05-25T08:47:46.279Z,67.80
2018-05-25T08:50:14.295Z,67.80
2018-05-25T08:52:42.008Z,68.00
2018-05-25T08:55:09.793Z,68.10
2018-05-25T08:57:37.516Z,68.10
2018-05-25T09:00:05.989Z,68.30
2018-05-25T09:02:33.783Z,68.30
2018-05-25T09:05:01.525Z,69.00
2018-05-25T09:07:29.999Z,68.40
2018-05-25T09:09:57.858Z,68.40
2018-05-25T09:12:25.602Z,68.70
2018-05-25T09:14:53.828Z,68.30
2018-05-25T09:17:22.314Z,68.40
2018-05-25T09:19:50.280Z,68.40
2018-05-25T09:22:18.310Z,68.50
2018-05-25T09:24:45.966Z,68.50
2018-05-25T09:27:13.729Z,68.50
2018-05-25T09:29:42.237Z,68.50
2018-05-25T09:32:09.908Z,68.50
2018-05-25T09:34:38.452Z,68.60
2018-05-25T09:37:06.164Z,68.50
2018-05-25T09:39:34.638Z,68.60
2018-05-25T09:42:03.105Z,68.60
2018-05-25T09:44:30.982Z,68.50
2018-05-25T09:46:59.395Z,68.60
2018-05-25T09:49:27.105Z,68.60
2018-05-25T09:51:54.819Z,68.60
2018-05-25T09:54:22.492Z,68.60
2018-05-25T09:57:01.301Z,68.50
2018-05-25T09:59:29.015Z,68.50
2018-05-25T10:01:56.688Z,68.60
2018-05-25T10:04:24.377Z,68.50
2018-05-25T10:06:52.422Z,68.10
2018-05-25T10:09:20.100Z,68.40
2018-05-25T10:11:48.643Z,68.40
2018-05-25T10:14:16.319Z,68.40
2018-05-25T10:16:44.034Z,68.40
2018-05-25T10:19:11.728Z,68.40
2018-05-25T10:21:39.425Z,68.40
2018-05-25T10:24:07.890Z,68.50
2018-05-25T10:26:35.562Z,68.40
2018-05-25T10:29:03.226Z,68.80
2018-05-25T10:31:31.694Z,68.70
2018-05-25T10:33:59.391Z,68.60
2018-05-25T10:36:27.097Z,68.80
2018-05-25T10:38:55.352Z,68.70
2018-05-25T10:41:23.099Z,68.80
2018-05-25T10:43:50.881Z,68.90
2018-05-25T10:46:18.654Z,70.40
2018-05-25T10:48:46.339Z,69.50
2018-05-25T10:51:14.004Z,69.30
2018-05-25T10:53:41.733Z,69.30
2018-05-25T10:56:09.400Z,69.60
2018-05-25T10:58:37.077Z,69.60
2018-05-25T11:01:04.916Z,69.70
2018-05-25T11:03:32.606Z,69.80
2018-05-25T11:06:00.339Z,69.80
2018-05-25T11:08:28.064Z,69.70
2018-05-25T11:10:56.006Z,69.60
2018-05-25T11:13:23.803Z,69.80
2018-05-25T11:15:52.247Z,69.80
2018-05-25T11:18:20.000Z,69.60
2018-05-25T11:20:47.680Z,69.60
2018-05-25T11:23:15.393Z,69.70
2018-05-25T11:25:43.860Z,69.80
2018-05-25T11:28:12.292Z,69.80
2018-05-25T11:30:40.043Z,69.70
2018-05-25T11:33:07.747Z,69.70
2018-05-25T11:35:35.459Z,69.80
2018-05-25T11:38:03.157Z,69.80
2018-05-25T11:40:30.824Z,69.80
2018-05-25T11:42:58.680Z,69.80
2018-05-25T11:45:26.358Z,69.80
2018-05-25T11:47:54.049Z,69.90
2018-05-25T11:50:22.660Z,69.70
2018-05-25T11:52:50.347Z,69.60
2018-05-25T11:55:18.041Z,69.70
2018-05-25T11:57:45.779Z,69.80
2018-05-25T12:00:13.479Z,70.60
2018-05-25T12:02:41.925Z,70.10
2018-05-25T12:05:09.610Z,70.00
2018-05-25T12:07:37.284Z,69.90
2018-05-25T12:10:05.740Z,70.10
2018-05-25T12:12:34.158Z,70.00
2018-05-25T12:15:03.078Z,70.30
2018-05-25T12:17:30.733Z,70.30
2018-05-25T12:19:58.445Z,70.20
2018-05-25T12:22:26.122Z,70.20
2018-05-25T12:24:54.593Z,70.50
2018-05-25T12:27:22.320Z,71.20
2018-05-25T12:29:50.001Z,70.40
2018-05-25T12:32:17.677Z,70.30
2018-05-25T12:34:45.351Z,70.40
2018-05-25T12:37:13.036Z,70.50
2018-05-25T12:39:40.745Z,70.50
2018-05-25T12:42:08.435Z,70.50
2018-05-25T12:44:47.995Z,70.60
2018-05-25T12:47:16.483Z,70.50
2018-05-25T12:49:44.237Z,70.30
2018-05-25T12:52:12.679Z,70.50
2018-05-25T12:54:40.411Z,70.40
2018-05-25T12:57:08.072Z,70.40
2018-05-25T12:59:35.873Z,70.50
2018-05-25T13:02:03.536Z,70.50
2018-05-25T13:04:31.217Z,70.40
2018-05-25T13:06:58.881Z,70.40
2018-05-25T13:09:26.589Z,70.40
2018-05-25T13:11:54.335Z,70.50
2018-05-25T13:14:21.993Z,70.10
2018-05-25T13:16:50.444Z,70.00
2018-05-25T13:19:18.121Z,69.90
2018-05-25T13:21:46.722Z,70.20
2018-05-25T13:24:15.156Z,70.20
2018-05-25T13:26:42.908Z,70.10
2018-05-25T13:29:10.675Z,70.10
2018-05-25T13:31:38.376Z,69.80
2018-05-25T13:34:06.820Z,70.00
2018-05-25T13:36:34.500Z,69.90
2018-05-25T13:39:02.154Z,69.80
2018-05-25T13:41:29.864Z,69.80
2018-05-25T13:43:57.505Z,69.90
2018-05-25T13:46:25.968Z,69.80
2018-05-25T13:48:53.637Z,69.70
2018-05-25T13:51:21.649Z,69.80
2018-05-25T13:53:52.228Z,69.80
2018-05-25T13:56:19.929Z,69.80
2018-05-25T13:58:47.627Z,69.70
2018-05-25T14:01:15.390Z,69.80
2018-05-25T14:03:43.059Z,69.70
2018-05-25T14:06:10.754Z,69.60
2018-05-25T14:08:38.413Z,69.70
2018-05-25T14:11:06.188Z,70.30
2018-05-25T14:13:34.628Z,69.70
2018-05-25T14:16:02.314Z,69.70
2018-05-25T14:18:29.992Z,69.50
2018-05-25T14:20:58.436Z,69.70
2018-05-25T14:23:26.142Z,69.60
2018-05-25T14:25:54.604Z,69.80
2018-05-25T14:28:22.313Z,69.80
2018-05-25T14:30:50.039Z,69.80
2018-05-25T14:33:17.693Z,69.80
2018-05-25T14:35:45.372Z,69.80
2018-05-25T14:38:13.833Z,69.90
2018-05-25T14:40:41.512Z,69.80
2018-05-25T14:43:09.964Z,69.70
2018-05-25T14:45:37.706Z,69.70
2018-05-25T14:48:05.391Z,69.80
2018-05-25T14:50:33.077Z,69.90
2018-05-25T14:53:00.756Z,69.90
2018-05-25T14:55:29.224Z,70.10
2018-05-25T14:57:57.728Z,70.00
2018-05-25T15:00:25.453Z,69.90
2018-05-25T15:02:53.128Z,69.80
2018-05-25T15:05:21.603Z,69.70
2018-05-25T15:07:50.074Z,69.80
2018-05-25T15:10:17.804Z,69.70
2018-05-25T15:12:45.481Z,69.80
2018-05-25T15:15:13.181Z,69.70
2018-05-25T15:17:41.601Z,69.80
2018-05-25T15:20:09.387Z,69.70
2018-05-25T15:22:37.106Z,69.70
2018-05-25T15:25:05.920Z,69.70
2018-05-25T15:27:33.601Z,69.70
2018-05-25T15:30:02.419Z,69.70
2018-05-25T15:32:30.103Z,69.70
2018-05-25T15:34:58.531Z,69.70
2018-05-25T15:37:26.227Z,69.60
2018-05-25T15:39:53.917Z,69.80
2018-05-25T15:42:22.384Z,69.70
2018-05-25T15:44:50.844Z,69.70
2018-05-25T15:47:18.517Z,69.70
2018-05-25T15:49:46.220Z,69.70
2018-05-25T15:52:13.937Z,69.70
2018-05-25T15:54:41.669Z,69.80
2018-05-25T15:57:09.430Z,69.70
2018-05-25T15:59:37.119Z,69.70
2018-05-25T16:02:04.833Z,69.90
2018-05-25T16:04:32.549Z,69.70
2018-05-25T16:07:00.238Z,69.80
2018-05-25T16:09:28.689Z,69.80
2018-05-25T16:11:56.443Z,69.70
2018-05-25T16:14:24.169Z,69.70
2018-05-25T16:16:51.863Z,69.80
2018-05-25T16:19:19.574Z,69.80
2018-05-25T16:21:48.127Z,70.10
2018-05-25T16:24:15.812Z,70.10
2018-05-25T16:26:44.357Z,70.00
2018-05-25T16:29:12.499Z,70.00
2018-05-25T16:31:40.216Z,70.00
2018-05-25T16:34:07.926Z,70.20
2018-05-25T16:36:35.610Z,70.50
2018-05-25T16:39:03.390Z,70.40
2018-05-25T16:41:31.070Z,70.50
2018-05-25T16:43:58.800Z,70.40
2018-05-25T16:46:26.481Z,70.40
2018-05-25T16:48:54.158Z,70.60
2018-05-25T16:51:22.765Z,70.60
2018-05-25T16:53:50.491Z,70.50
2018-05-25T16:56:18.161Z,70.60
2018-05-25T16:58:45.989Z,70.60
2018-05-25T17:01:13.749Z,70.60
2018-05-25T17:03:41.409Z,70.90
2018-05-25T17:06:09.138Z,71.30
2018-05-25T17:08:37.602Z,71.90
2018-05-25T17:11:06.103Z,71.80
2018-05-25T17:13:34.539Z,71.80
2018-05-25T17:16:02.238Z,71.80
2018-05-25T17:18:30.689Z,71.80
2018-05-25T17:20:58.408Z,71.70
2018-05-25T17:23:26.195Z,71.70
2018-05-25T17:25:53.902Z,72.10
2018-05-25T17:28:21.574Z,72.00
2018-05-25T17:30:50.074Z,72.10
2018-05-25T17:33:17.961Z,72.00
2018-05-25T17:35:45.615Z,72.30
2018-05-25T17:38:13.393Z,72.20
2018-05-25T17:40:41.101Z,72.30
2018-05-25T17:43:08.795Z,72.30
2018-05-25T17:45:36.516Z,72.30
2018-05-25T17:48:04.181Z,72.40
2018-05-25T17:50:31.889Z,72.40
2018-05-25T17:52:59.612Z,72.30
2018-05-25T17:55:27.304Z,72.50
2018-05-25T17:57:55.733Z,72.50
2018-05-25T18:00:23.485Z,72.50
2018-05-25T18:02:51.171Z,72.60
2018-05-25T18:05:18.920Z,72.60
2018-05-25T18:07:46.605Z,72.60
2018-05-25T18:10:14.422Z,72.80
2018-05-25T18:12:42.099Z,72.70
2018-05-25T18:15:10.237Z,72.70
2018-05-25T18:17:37.990Z,72.80
2018-05-25T18:20:06.472Z,73.00
2018-05-25T18:22:34.937Z,73.30
2018-05-25T18:25:02.614Z,73.30
2018-05-25T18:27:31.082Z,73.70
2018-05-25T18:29:58.844Z,73.70
2018-05-25T18:32:26.572Z,74.50
2018-05-25T18:34:54.241Z,74.50
2018-05-25T18:37:21.964Z,74.80
2018-05-25T18:39:49.669Z,74.70
2018-05-25T18:42:17.573Z,74.40
2018-05-25T18:44:46.022Z,74.40
2018-05-25T18:47:13.705Z,74.40
2018-05-25T18:49:41.381Z,74.00
2018-05-25T18:52:09.840Z,74.10
2018-05-25T18:54:37.525Z,74.00
2018-05-25T18:57:06.009Z,74.00
2018-05-25T18:59:34.471Z,73.80
2018-05-25T19:02:02.188Z,73.80
2018-05-25T19:04:29.892Z,73.80
2018-05-25T19:06:57.585Z,73.80
2018-05-25T19:09:26.054Z,74.40
2018-05-25T19:11:54.533Z,73.70
2018-05-25T19:14:23.029Z,73.60
2018-05-25T19:16:51.491Z,73.40
2018-05-25T19:19:19.166Z,73.30
2018-05-25T19:21:47.620Z,73.30
2018-05-25T19:24:15.305Z,73.20
2018-05-25T19:26:43.849Z,73.50
2018-05-25T19:29:11.568Z,73.30
2018-05-25T19:31:39.360Z,73.40
2018-05-25T19:34:07.034Z,73.30
2018-05-25T19:36:34.727Z,73.10
2018-05-25T19:39:02.461Z,73.20
2018-05-25T19:41:30.128Z,73.30
2018-05-25T19:43:57.784Z,73.30
2018-05-25T19:46:25.501Z,73.20
2018-05-25T19:48:53.956Z,73.20
2018-05-25T19:51:21.652Z,73.20
2018-05-25T19:53:49.358Z,73.20
2018-05-25T19:56:17.020Z,73.00
2018-05-25T19:58:44.710Z,73.00
2018-05-25T20:01:12.401Z,72.50
2018-05-25T20:03:40.104Z,72.60
2018-05-25T20:06:07.786Z,72.90
2018-05-25T20:08:35.438Z,73.20
2018-05-25T20:11:03.590Z,73.20
2018-05-25T20:13:31.264Z,73.20
2018-05-25T20:15:58.956Z,72.80
2018-05-25T20:18:26.682Z,73.10
2018-05-25T20:20:54.368Z,72.90
2018-05-25T20:23:22.040Z,72.60
2018-05-25T20:25:49.750Z,72.50
2018-05-25T20:28:17.504Z,72.50
2018-05-25T20:30:45.234Z,72.30
2018-05-25T20:33:12.953Z,72.20
2018-05-25T20:35:40.632Z,72.10
2018-05-25T20:38:08.300Z,72.10
2018-05-25T20:40:35.961Z,72.10
2018-05-25T20:43:03.641Z,72.10
2018-05-25T20:45:31.310Z,72.20
2018-05-25T20:47:59.228Z,72.40
2018-05-25T20:50:27.016Z,72.60
2018-05-25T20:52:54.674Z,72.50
2018-05-25T20:55:22.331Z,72.20
2018-05-25T20:57:50.005Z,72.10
2018-05-25T21:00:17.664Z,72.10
2018-05-25T21:02:45.321Z,72.10
2018-05-25T21:05:12.984Z,72.10
2018-05-25T21:07:40.659Z,72.10
2018-05-25T21:10:08.315Z,72.10
2018-05-25T21:12:35.973Z,72.00
2018-05-25T21:15:03.973Z,71.90
2018-05-25T21:17:31.678Z,71.90
2018-05-25T21:19:59.369Z,71.80
2018-05-25T21:22:27.034Z,71.90
2018-05-25T21:24:54.691Z,71.80
2018-05-25T21:27:22.429Z,71.80
2018-05-25T21:29:50.217Z,71.80
2018-05-25T21:32:17.879Z,71.70
2018-05-25T21:34:45.549Z,71.70
2018-05-25T21:37:13.262Z,72.40
2018-05-25T21:39:40.896Z,71.60
2018-05-25T21:42:08.557Z,71.90
2018-05-25T21:44:36.221Z,71.60
2018-05-25T21:47:03.896Z,71.60
2018-05-25T21:49:32.337Z,71.50
2018-05-25T21:51:59.993Z,71.40
2018-05-25T21:54:27.685Z,71.40
2018-05-25T21:56:55.356Z,71.40
2018-05-25T21:59:23.777Z,71.30
2018-05-25T22:01:51.507Z,71.30
2018-05-25T22:04:19.926Z,71.70
2018-05-25T22:06:47.578Z,71.20
2018-05-25T22:09:15.302Z,71.20
2018-05-25T22:11:42.961Z,71.10
2018-05-25T22:14:10.623Z,71.10
2018-05-25T22:16:38.332Z,71.00
2018-05-25T22:19:06.401Z,71.00
2018-05-25T22:21:34.092Z,71.00
2018-05-25T22:24:01.751Z,70.90
2018-05-25T22:26:29.413Z,70.90
2018-05-25T22:28:57.073Z,70.90
2018-05-25T22:31:24.838Z,70.90
2018-05-25T22:33:52.500Z,70.80
2018-05-25T22:36:20.164Z,70.80
2018-05-25T22:38:47.825Z,70.70
2018-05-25T22:41:15.497Z,70.70
2018-05-25T22:43:54.930Z,70.70
2018-05-25T22:46:34.643Z,70.70
2018-05-25T22:49:14.481Z,70.70
2018-05-25T22:51:53.941Z,70.60
2018-05-25T22:54:28.861Z,70.60
2018-05-25T22:56:56.755Z,70.60
2018-05-25T22:59:24.421Z,70.60
2018-05-25T23:01:52.073Z,70.50
2018-05-25T23:04:19.721Z,70.60
2018-05-25T23:06:47.377Z,70.50
2018-05-25T23:09:15.036Z,70.50
2018-05-25T23:11:42.737Z,70.40
2018-05-25T23:14:10.392Z,70.50
2018-05-25T23:16:38.059Z,70.40
2018-05-25T23:19:05.719Z,70.40
2018-05-25T23:21:33.756Z,70.40
2018-05-25T23:24:01.420Z,70.40
2018-05-25T23:26:29.081Z,70.40
2018-05-25T23:28:56.773Z,70.40
2018-05-25T23:31:24.437Z,70.30
2018-05-25T23:33:52.110Z,70.40
2018-05-25T23:36:19.769Z,70.30
2018-05-25T23:38:47.426Z,70.30
2018-05-25T23:41:15.090Z,70.20
2018-05-25T23:43:42.752Z,70.20
2018-05-25T23:46:10.414Z,70.20
2018-05-25T23:48:38.073Z,70.30
2018-05-25T23:51:05.733Z,70.20
2018-05-25T23:53:33.401Z,70.20
2018-05-25T23:56:01.060Z,70.20
2018-05-25T23:58:28.721Z,70.20
